sensor_id;sensor_type;location;lat;lon;timestamp;pressure;altitude;pressure_sealevel;temperature;humidity
52653;BME280;39353;42.864;12.014;2022-10-30T00:00:43;98263.21;;;22.54;54.27
52653;BME280;39353;42.864;12.014;2022-10-30T00:03:26;98261.02;;;22.54;54.19
52653;BME280;39353;42.864;12.014;2022-10-30T00:05:53;98260.94;;;22.53;54.39
52653;BME280;39353;42.864;12.014;2022-10-30T00:08:23;98262.58;;;22.53;54.37
52653;BME280;39353;42.864;12.014;2022-10-30T00:10:53;98265.93;;;22.52;54.42
52653;BME280;39353;42.864;12.014;2022-10-30T00:13:35;98265.40;;;22.52;54.40
52653;BME280;39353;42.864;12.014;2022-10-30T00:16:16;98266.04;;;22.52;54.49
52653;BME280;39353;42.864;12.014;2022-10-30T00:18:57;98260.08;;;22.51;54.49
52653;BME280;39353;42.864;12.014;2022-10-30T00:21:24;98263.73;;;22.51;54.46
52653;BME280;39353;42.864;12.014;2022-10-30T00:24:06;98261.42;;;22.51;54.53
52653;BME280;39353;42.864;12.014;2022-10-30T00:26:35;98261.42;;;22.49;54.51
52653;BME280;39353;42.864;12.014;2022-10-30T00:29:02;98259.83;;;22.49;54.59
52653;BME280;39353;42.864;12.014;2022-10-30T00:31:29;98259.92;;;22.48;54.58
52653;BME280;39353;42.864;12.014;2022-10-30T00:33:57;98259.23;;;22.48;54.60
52653;BME280;39353;42.864;12.014;2022-10-30T00:36:25;98263.95;;;22.46;54.58
52653;BME280;39353;42.864;12.014;2022-10-30T00:38:52;98260.01;;;22.46;54.79
52653;BME280;39353;42.864;12.014;2022-10-30T00:41:34;98259.08;;;22.46;54.65
52653;BME280;39353;42.864;12.014;2022-10-30T00:47:36;98257.35;;;22.44;54.70
52653;BME280;39353;42.864;12.014;2022-10-30T00:53:13;98256.39;;;22.43;54.83
52653;BME280;39353;42.864;12.014;2022-10-30T00:55:49;98254.97;;;22.43;54.94
52653;BME280;39353;42.864;12.014;2022-10-30T00:58:25;98250.74;;;22.43;54.86
52653;BME280;39353;42.864;12.014;2022-10-30T01:00:56;98248.05;;;22.43;55.00
52653;BME280;39353;42.864;12.014;2022-10-30T01:03:28;98248.78;;;22.43;54.97
52653;BME280;39353;42.864;12.014;2022-10-30T01:06:13;98253.98;;;22.43;54.97
52653;BME280;39353;42.864;12.014;2022-10-30T01:08:43;98247.53;;;22.43;55.14
52653;BME280;39353;42.864;12.014;2022-10-30T01:11:11;98241.02;;;22.42;54.84
52653;BME280;39353;42.864;12.014;2022-10-30T01:13:58;98240.03;;;22.43;55.00
52653;BME280;39353;42.864;12.014;2022-10-30T01:20:13;98236.36;;;22.43;55.11
52653;BME280;39353;42.864;12.014;2022-10-30T01:26:02;98230.91;;;22.43;55.07
52653;BME280;39353;42.864;12.014;2022-10-30T01:29:13;98227.65;;;22.43;55.14
52653;BME280;39353;42.864;12.014;2022-10-30T01:34:58;98225.41;;;22.42;55.08
52653;BME280;39353;42.864;12.014;2022-10-30T01:38:02;98219.44;;;22.41;55.21
52653;BME280;39353;42.864;12.014;2022-10-30T01:40:46;98214.64;;;22.42;55.22
52653;BME280;39353;42.864;12.014;2022-10-30T01:43:27;98219.90;;;22.42;55.25
52653;BME280;39353;42.864;12.014;2022-10-30T01:52:47;98215.45;;;22.42;55.26
52653;BME280;39353;42.864;12.014;2022-10-30T01:55:44;98215.45;;;22.41;55.32
52653;BME280;39353;42.864;12.014;2022-10-30T01:58:46;98210.83;;;22.41;55.41
52653;BME280;39353;42.864;12.014;2022-10-30T02:01:31;98208.55;;;22.40;55.45
52653;BME280;39353;42.864;12.014;2022-10-30T02:04:02;98205.10;;;22.40;55.37
52653;BME280;39353;42.864;12.014;2022-10-30T02:06:46;98208.64;;;22.39;55.42
52653;BME280;39353;42.864;12.014;2022-10-30T02:09:28;98206.83;;;22.39;55.37
52653;BME280;39353;42.864;12.014;2022-10-30T02:11:57;98204.60;;;22.40;55.39
52653;BME280;39353;42.864;12.014;2022-10-30T02:14:43;98204.95;;;22.39;55.50
52653;BME280;39353;42.864;12.014;2022-10-30T02:17:26;98201.42;;;22.38;55.55
52653;BME280;39353;42.864;12.014;2022-10-30T02:20:17;98201.48;;;22.37;55.67
52653;BME280;39353;42.864;12.014;2022-10-30T02:22:58;98198.52;;;22.38;55.46
52653;BME280;39353;42.864;12.014;2022-10-30T02:25:39;98201.24;;;22.37;55.49
52653;BME280;39353;42.864;12.014;2022-10-30T02:28:20;98196.33;;;22.38;55.57
52653;BME280;39353;42.864;12.014;2022-10-30T02:30:48;98194.23;;;22.37;55.43
52653;BME280;39353;42.864;12.014;2022-10-30T02:33:29;98189.19;;;22.36;55.64
52653;BME280;39353;42.864;12.014;2022-10-30T02:35:57;98187.77;;;22.36;55.57
52653;BME280;39353;42.864;12.014;2022-10-30T02:38:38;98188.14;;;22.36;55.46
52653;BME280;39353;42.864;12.014;2022-10-30T02:41:05;98186.33;;;22.36;55.54
52653;BME280;39353;42.864;12.014;2022-10-30T02:43:33;98185.58;;;22.36;55.49
52653;BME280;39353;42.864;12.014;2022-10-30T02:46:16;98187.52;;;22.36;55.61
52653;BME280;39353;42.864;12.014;2022-10-30T02:48:58;98185.30;;;22.34;55.68
52653;BME280;39353;42.864;12.014;2022-10-30T02:51:38;98185.08;;;22.35;55.67
52653;BME280;39353;42.864;12.014;2022-10-30T02:54:07;98182.69;;;22.35;55.69
52653;BME280;39353;42.864;12.014;2022-10-30T02:56:47;98182.30;;;22.35;55.75
52653;BME280;39353;42.864;12.014;2022-10-30T02:59:29;98182.64;;;22.35;55.70
52653;BME280;39353;42.864;12.014;2022-10-30T03:01:57;98185.30;;;22.34;55.74
52653;BME280;39353;42.864;12.014;2022-10-30T03:04:39;98185.30;;;22.34;55.69
52653;BME280;39353;42.864;12.014;2022-10-30T03:07:06;98186.67;;;22.35;55.68
52653;BME280;39353;42.864;12.014;2022-10-30T03:09:34;98189.16;;;22.34;55.74
52653;BME280;39353;42.864;12.014;2022-10-30T03:12:16;98190.21;;;22.34;55.79
52653;BME280;39353;42.864;12.014;2022-10-30T03:15:01;98192.18;;;22.35;55.79
52653;BME280;39353;42.864;12.014;2022-10-30T03:17:42;98190.17;;;22.35;55.65
52653;BME280;39353;42.864;12.014;2022-10-30T03:20:25;98194.98;;;22.34;55.77
52653;BME280;39353;42.864;12.014;2022-10-30T03:22:54;98192.70;;;22.33;55.72
52653;BME280;39353;42.864;12.014;2022-10-30T03:25:37;98189.96;;;22.34;55.83
52653;BME280;39353;42.864;12.014;2022-10-30T03:28:04;98190.93;;;22.33;55.81
52653;BME280;39353;42.864;12.014;2022-10-30T03:30:46;98188.96;;;22.33;55.82
52653;BME280;39353;42.864;12.014;2022-10-30T03:33:28;98190.42;;;22.33;55.86
52653;BME280;39353;42.864;12.014;2022-10-30T03:35:56;98188.71;;;22.32;55.91
52653;BME280;39353;42.864;12.014;2022-10-30T03:38:39;98193.89;;;22.31;55.77
52653;BME280;39353;42.864;12.014;2022-10-30T03:41:07;98191.87;;;22.32;55.77
52653;BME280;39353;42.864;12.014;2022-10-30T03:43:48;98193.88;;;22.31;55.98
52653;BME280;39353;42.864;12.014;2022-10-30T03:46:29;98192.24;;;22.31;55.89
52653;BME280;39353;42.864;12.014;2022-10-30T03:49:20;98191.99;;;22.31;55.89
52653;BME280;39353;42.864;12.014;2022-10-30T03:51:48;98196.46;;;22.30;55.75
52653;BME280;39353;42.864;12.014;2022-10-30T03:54:29;98199.70;;;22.30;55.93
52653;BME280;39353;42.864;12.014;2022-10-30T03:56:56;98198.05;;;22.30;55.91
52653;BME280;39353;42.864;12.014;2022-10-30T03:59:41;98200.23;;;22.29;55.82
52653;BME280;39353;42.864;12.014;2022-10-30T04:03:13;98202.89;;;22.30;55.93
52653;BME280;39353;42.864;12.014;2022-10-30T04:05:41;98204.74;;;22.29;55.91
52653;BME280;39353;42.864;12.014;2022-10-30T04:08:13;98205.55;;;22.29;55.92
52653;BME280;39353;42.864;12.014;2022-10-30T04:10:45;98204.62;;;22.29;56.00
52653;BME280;39353;42.864;12.014;2022-10-30T04:13:15;98205.38;;;22.29;55.97
52653;BME280;39353;42.864;12.014;2022-10-30T04:16:02;98207.98;;;22.28;55.89
52653;BME280;39353;42.864;12.014;2022-10-30T04:18:43;98212.02;;;22.28;55.85
52653;BME280;39353;42.864;12.014;2022-10-30T04:21:11;98204.80;;;22.28;56.05
52653;BME280;39353;42.864;12.014;2022-10-30T04:23:39;98205.47;;;22.28;55.86
52653;BME280;39353;42.864;12.014;2022-10-30T04:26:06;98208.10;;;22.29;56.03
52653;BME280;39353;42.864;12.014;2022-10-30T04:28:36;98206.27;;;22.28;55.80
52653;BME280;39353;42.864;12.014;2022-10-30T04:31:04;98205.88;;;22.29;55.83
52653;BME280;39353;42.864;12.014;2022-10-30T04:33:46;98205.01;;;22.29;55.97
52653;BME280;39353;42.864;12.014;2022-10-30T04:36:27;98205.63;;;22.30;55.97
52653;BME280;39353;42.864;12.014;2022-10-30T04:39:13;98201.99;;;22.29;56.13
52653;BME280;39353;42.864;12.014;2022-10-30T04:41:56;98196.81;;;22.28;55.81
52653;BME280;39353;42.864;12.014;2022-10-30T04:44:43;98197.65;;;22.27;55.98
52653;BME280;39353;42.864;12.014;2022-10-30T04:47:10;98195.34;;;22.27;55.92
52653;BME280;39353;42.864;12.014;2022-10-30T04:49:51;98196.05;;;22.27;56.06
52653;BME280;39353;42.864;12.014;2022-10-30T04:52:18;98192.81;;;22.26;56.06
52653;BME280;39353;42.864;12.014;2022-10-30T04:54:59;98193.48;;;22.28;55.97
52653;BME280;39353;42.864;12.014;2022-10-30T04:57:40;98193.36;;;22.26;56.05
52653;BME280;39353;42.864;12.014;2022-10-30T05:00:10;98197.60;;;22.27;56.09
52653;BME280;39353;42.864;12.014;2022-10-30T05:02:53;98197.27;;;22.27;56.02
52653;BME280;39353;42.864;12.014;2022-10-30T05:05:24;98195.89;;;22.27;56.15
52653;BME280;39353;42.864;12.014;2022-10-30T05:08:05;98188.41;;;22.25;56.23
52653;BME280;39353;42.864;12.014;2022-10-30T05:10:48;98191.68;;;22.25;55.96
52653;BME280;39353;42.864;12.014;2022-10-30T05:13:29;98191.68;;;22.25;55.99
52653;BME280;39353;42.864;12.014;2022-10-30T05:16:09;98185.16;;;22.25;55.98
52653;BME280;39353;42.864;12.014;2022-10-30T05:18:37;98187.14;;;22.25;56.12
52653;BME280;39353;42.864;12.014;2022-10-30T05:21:17;98185.23;;;22.25;55.99
52653;BME280;39353;42.864;12.014;2022-10-30T05:23:45;98189.30;;;22.24;55.85
52653;BME280;39353;42.864;12.014;2022-10-30T05:26:26;98183.92;;;22.24;55.84
52653;BME280;39353;42.864;12.014;2022-10-30T05:29:08;98183.76;;;22.23;55.93
52653;BME280;39353;42.864;12.014;2022-10-30T05:31:49;98176.73;;;22.23;56.00
52653;BME280;39353;42.864;12.014;2022-10-30T05:34:30;98180.85;;;22.23;56.01
52653;BME280;39353;42.864;12.014;2022-10-30T05:36:59;98181.10;;;22.24;55.81
52653;BME280;39353;42.864;12.014;2022-10-30T05:39:41;98182.70;;;22.23;55.62
52653;BME280;39353;42.864;12.014;2022-10-30T05:42:14;98184.19;;;22.22;55.54
52653;BME280;39353;42.864;12.014;2022-10-30T05:44:56;98181.00;;;22.20;55.30
52653;BME280;39353;42.864;12.014;2022-10-30T05:47:37;98180.87;;;22.19;55.38
52653;BME280;39353;42.864;12.014;2022-10-30T05:50:06;98179.98;;;22.17;55.37
52653;BME280;39353;42.864;12.014;2022-10-30T05:52:47;98183.78;;;22.18;55.33
52653;BME280;39353;42.864;12.014;2022-10-30T05:55:29;98182.86;;;22.16;55.31
52653;BME280;39353;42.864;12.014;2022-10-30T05:58:20;98182.89;;;22.16;55.37
52653;BME280;39353;42.864;12.014;2022-10-30T06:00:50;98187.65;;;22.16;55.11
52653;BME280;39353;42.864;12.014;2022-10-30T06:03:20;98186.59;;;22.16;55.18
52653;BME280;39353;42.864;12.014;2022-10-30T06:05:47;98184.41;;;22.16;54.99
52653;BME280;39353;42.864;12.014;2022-10-30T06:08:28;98188.62;;;22.16;54.94
52653;BME280;39353;42.864;12.014;2022-10-30T06:11:13;98189.39;;;22.16;54.97
52653;BME280;39353;42.864;12.014;2022-10-30T06:13:57;98188.31;;;22.16;55.04
52653;BME280;39353;42.864;12.014;2022-10-30T06:16:50;98189.33;;;22.17;54.85
52653;BME280;39353;42.864;12.014;2022-10-30T06:19:29;98193.58;;;22.18;54.85
52653;BME280;39353;42.864;12.014;2022-10-30T06:22:07;98198.02;;;22.19;54.81
52653;BME280;39353;42.864;12.014;2022-10-30T06:24:58;98197.60;;;22.18;54.73
52653;BME280;39353;42.864;12.014;2022-10-30T06:27:52;98205.34;;;22.19;54.86
52653;BME280;39353;42.864;12.014;2022-10-30T06:30:20;98201.46;;;22.21;54.82
52653;BME280;39353;42.864;12.014;2022-10-30T06:33:04;98201.67;;;22.22;54.62
52653;BME280;39353;42.864;12.014;2022-10-30T06:35:49;98205.48;;;22.23;54.77
52653;BME280;39353;42.864;12.014;2022-10-30T06:38:32;98202.04;;;22.24;54.75
52653;BME280;39353;42.864;12.014;2022-10-30T06:41:13;98207.37;;;22.26;54.74
52653;BME280;39353;42.864;12.014;2022-10-30T06:44:13;98207.98;;;22.27;54.61
52653;BME280;39353;42.864;12.014;2022-10-30T06:46:54;98210.43;;;22.28;54.75
52653;BME280;39353;42.864;12.014;2022-10-30T06:49:21;98213.13;;;22.28;54.31
52653;BME280;39353;42.864;12.014;2022-10-30T06:52:04;98214.06;;;22.23;52.88
52653;BME280;39353;42.864;12.014;2022-10-30T06:54:31;98214.14;;;22.14;51.76
52653;BME280;39353;42.864;12.014;2022-10-30T06:57:04;98213.48;;;22.06;51.42
52653;BME280;39353;42.864;12.014;2022-10-30T07:00:28;98218.88;;;21.99;51.30
52653;BME280;39353;42.864;12.014;2022-10-30T07:03:27;98218.31;;;21.94;51.05
52653;BME280;39353;42.864;12.014;2022-10-30T07:06:08;98220.73;;;21.88;50.20
52653;BME280;39353;42.864;12.014;2022-10-30T07:08:37;98222.66;;;21.77;49.46
52653;BME280;39353;42.864;12.014;2022-10-30T07:11:18;98221.50;;;21.60;49.42
52653;BME280;39353;42.864;12.014;2022-10-30T07:14:16;98225.20;;;21.49;49.65
52653;BME280;39353;42.864;12.014;2022-10-30T07:17:02;98226.36;;;21.40;49.30
52653;BME280;39353;42.864;12.014;2022-10-30T07:19:44;98226.73;;;21.39;49.00
52653;BME280;39353;42.864;12.014;2022-10-30T07:22:11;98227.58;;;21.34;48.82
52653;BME280;39353;42.864;12.014;2022-10-30T07:24:56;98225.84;;;21.23;48.65
52653;BME280;39353;42.864;12.014;2022-10-30T07:27:57;98225.37;;;21.12;48.08
52653;BME280;39353;42.864;12.014;2022-10-30T07:30:38;98224.02;;;21.11;48.61
52653;BME280;39353;42.864;12.014;2022-10-30T07:34:05;98227.98;;;21.14;48.81
52653;BME280;39353;42.864;12.014;2022-10-30T07:37:30;98228.77;;;21.13;48.48
52653;BME280;39353;42.864;12.014;2022-10-30T07:40:07;98232.63;;;21.05;48.38
52653;BME280;39353;42.864;12.014;2022-10-30T07:43:08;98237.02;;;20.80;47.87
52653;BME280;39353;42.864;12.014;2022-10-30T07:46:02;98244.62;;;20.77;48.88
52653;BME280;39353;42.864;12.014;2022-10-30T07:48:38;98242.27;;;20.71;48.45
52653;BME280;39353;42.864;12.014;2022-10-30T07:51:22;98244.20;;;20.54;47.17
52653;BME280;39353;42.864;12.014;2022-10-30T07:53:49;98244.77;;;20.34;46.82
52653;BME280;39353;42.864;12.014;2022-10-30T07:56:17;98249.96;;;20.21;46.97
52653;BME280;39353;42.864;12.014;2022-10-30T07:59:17;98247.67;;;20.08;47.17
52653;BME280;39353;42.864;12.014;2022-10-30T08:02:12;98248.13;;;20.10;48.31
52653;BME280;39353;42.864;12.014;2022-10-30T08:05:33;98249.62;;;20.19;49.64
52653;BME280;39353;42.864;12.014;2022-10-30T08:08:23;98250.11;;;20.27;49.66
52653;BME280;39353;42.864;12.014;2022-10-30T08:11:13;98248.75;;;20.22;48.69
52653;BME280;39353;42.864;12.014;2022-10-30T08:13:41;98249.24;;;20.33;49.45
52653;BME280;39353;42.864;12.014;2022-10-30T08:16:23;98247.73;;;20.57;50.06
52653;BME280;39353;42.864;12.014;2022-10-30T08:18:50;98244.22;;;20.74;50.49
52653;BME280;39353;42.864;12.014;2022-10-30T08:21:33;98246.04;;;20.84;50.65
52653;BME280;39353;42.864;12.014;2022-10-30T08:24:20;98251.93;;;20.94;50.21
52653;BME280;39353;42.864;12.014;2022-10-30T08:26:50;98252.32;;;21.03;50.28
52653;BME280;39353;42.864;12.014;2022-10-30T08:29:32;98250.85;;;21.10;50.16
52653;BME280;39353;42.864;12.014;2022-10-30T08:32:15;98255.02;;;21.14;50.14
52653;BME280;39353;42.864;12.014;2022-10-30T08:35:14;98256.23;;;21.18;50.00
52653;BME280;39353;42.864;12.014;2022-10-30T08:37:57;98257.27;;;21.19;50.19
52653;BME280;39353;42.864;12.014;2022-10-30T08:40:26;98258.62;;;21.21;50.64
52653;BME280;39353;42.864;12.014;2022-10-30T08:43:03;98257.66;;;21.23;50.73
52653;BME280;39353;42.864;12.014;2022-10-30T08:45:34;98255.59;;;21.26;50.80
52653;BME280;39353;42.864;12.014;2022-10-30T08:48:12;98257.98;;;21.38;51.07
52653;BME280;39353;42.864;12.014;2022-10-30T08:50:45;98258.89;;;21.53;51.75
52653;BME280;39353;42.864;12.014;2022-10-30T08:53:14;98258.31;;;21.68;52.39
52653;BME280;39353;42.864;12.014;2022-10-30T08:55:42;98257.98;;;21.81;52.57
52653;BME280;39353;42.864;12.014;2022-10-30T08:58:15;98258.34;;;21.90;52.81
52653;BME280;39353;42.864;12.014;2022-10-30T09:00:43;98265.36;;;21.89;52.91
52653;BME280;39353;42.864;12.014;2022-10-30T09:03:13;98264.85;;;21.91;52.40
52653;BME280;39353;42.864;12.014;2022-10-30T09:06:25;98264.21;;;21.91;52.91
52653;BME280;39353;42.864;12.014;2022-10-30T09:10:01;98263.88;;;21.96;55.10
52653;BME280;39353;42.864;12.014;2022-10-30T09:12:31;98263.23;;;21.98;55.36
52653;BME280;39353;42.864;12.014;2022-10-30T09:15:12;98262.82;;;21.95;53.50
52653;BME280;39353;42.864;12.014;2022-10-30T09:17:58;98263.57;;;21.86;52.28
52653;BME280;39353;42.864;12.014;2022-10-30T09:20:42;98264.56;;;21.78;52.23
52653;BME280;39353;42.864;12.014;2022-10-30T09:23:10;98261.58;;;21.76;52.22
52653;BME280;39353;42.864;12.014;2022-10-30T09:25:51;98262.54;;;21.73;52.09
52653;BME280;39353;42.864;12.014;2022-10-30T09:29:22;98263.11;;;21.70;52.19
52653;BME280;39353;42.864;12.014;2022-10-30T09:32:42;98259.83;;;21.69;52.57
52653;BME280;39353;42.864;12.014;2022-10-30T09:35:11;98257.58;;;21.72;52.44
52653;BME280;39353;42.864;12.014;2022-10-30T09:37:41;98260.44;;;21.73;52.24
52653;BME280;39353;42.864;12.014;2022-10-30T09:40:48;98261.96;;;21.70;51.97
52653;BME280;39353;42.864;12.014;2022-10-30T09:52:12;98269.56;;;21.75;52.43
52653;BME280;39353;42.864;12.014;2022-10-30T09:55:06;98265.27;;;21.77;51.92
52653;BME280;39353;42.864;12.014;2022-10-30T10:07:29;98261.08;;;21.86;52.59
52653;BME280;39353;42.864;12.014;2022-10-30T10:10:46;98262.54;;;21.93;52.68
52653;BME280;39353;42.864;12.014;2022-10-30T10:16:52;98259.23;;;22.01;52.66
52653;BME280;39353;42.864;12.014;2022-10-30T10:25:02;98255.14;;;22.05;52.88
52653;BME280;39353;42.864;12.014;2022-10-30T10:28:10;98254.14;;;22.06;52.82
52653;BME280;39353;42.864;12.014;2022-10-30T10:31:17;98251.49;;;22.07;52.51
52653;BME280;39353;42.864;12.014;2022-10-30T10:37:20;98245.38;;;22.10;52.61
52653;BME280;39353;42.864;12.014;2022-10-30T10:49:57;98237.11;;;22.12;52.94
52653;BME280;39353;42.864;12.014;2022-10-30T10:52:46;98234.73;;;22.12;52.87
52653;BME280;39353;42.864;12.014;2022-10-30T10:55:35;98234.45;;;22.12;52.85
52653;BME280;39353;42.864;12.014;2022-10-30T10:58:48;98233.20;;;22.12;52.97
52653;BME280;39353;42.864;12.014;2022-10-30T11:01:22;98226.65;;;22.12;52.91
52653;BME280;39353;42.864;12.014;2022-10-30T11:04:13;98223.70;;;22.12;53.10
52653;BME280;39353;42.864;12.014;2022-10-30T11:06:57;98217.94;;;22.12;52.86
52653;BME280;39353;42.864;12.014;2022-10-30T11:09:40;98215.31;;;22.11;53.08
52653;BME280;39353;42.864;12.014;2022-10-30T11:12:29;98210.61;;;22.11;53.13
52653;BME280;39353;42.864;12.014;2022-10-30T11:18:07;98206.95;;;22.11;53.24
52653;BME280;39353;42.864;12.014;2022-10-30T11:20:58;98202.87;;;22.10;53.06
52653;BME280;39353;42.864;12.014;2022-10-30T11:23:43;98204.73;;;22.10;53.26
52653;BME280;39353;42.864;12.014;2022-10-30T11:26:30;98202.84;;;22.09;53.26
52653;BME280;39353;42.864;12.014;2022-10-30T11:29:14;98195.73;;;22.08;53.14
52653;BME280;39353;42.864;12.014;2022-10-30T11:31:44;98197.55;;;22.08;53.23
52653;BME280;39353;42.864;12.014;2022-10-30T11:36:49;98189.50;;;22.10;52.24
52653;BME280;39353;42.864;12.014;2022-10-30T11:39:22;98183.89;;;22.12;52.23
52653;BME280;39353;42.864;12.014;2022-10-30T11:42:05;98183.20;;;22.13;52.18
52653;BME280;39353;42.864;12.014;2022-10-30T11:45:00;98182.02;;;22.15;51.90
52653;BME280;39353;42.864;12.014;2022-10-30T11:47:37;98178.48;;;22.18;50.75
52653;BME280;39353;42.864;12.014;2022-10-30T11:50:22;98175.95;;;22.19;50.54
52653;BME280;39353;42.864;12.014;2022-10-30T11:53:18;98171.90;;;22.21;50.40
52653;BME280;39353;42.864;12.014;2022-10-30T11:55:49;98167.45;;;22.23;50.29
52653;BME280;39353;42.864;12.014;2022-10-30T11:58:31;98163.09;;;22.24;50.09
52653;BME280;39353;42.864;12.014;2022-10-30T12:01:26;98156.02;;;22.25;49.90
52653;BME280;39353;42.864;12.014;2022-10-30T12:04:21;98155.39;;;22.25;49.85
52653;BME280;39353;42.864;12.014;2022-10-30T12:10:29;98150.70;;;22.24;49.57
52653;BME280;39353;42.864;12.014;2022-10-30T12:13:03;98148.78;;;22.27;49.15
52653;BME280;39353;42.864;12.014;2022-10-30T12:15:37;98145.98;;;22.31;50.14
52653;BME280;39353;42.864;12.014;2022-10-30T12:18:07;98144.29;;;22.33;50.71
52653;BME280;39353;42.864;12.014;2022-10-30T12:20:57;98142.43;;;22.35;50.30
52653;BME280;39353;42.864;12.014;2022-10-30T12:23:39;98137.80;;;22.36;49.48
52653;BME280;39353;42.864;12.014;2022-10-30T12:26:22;98137.80;;;22.39;50.54
52653;BME280;39353;42.864;12.014;2022-10-30T12:29:02;98134.26;;;22.40;51.23
52653;BME280;39353;42.864;12.014;2022-10-30T12:31:39;98133.13;;;22.41;51.83
52653;BME280;39353;42.864;12.014;2022-10-30T12:34:48;98128.84;;;22.42;52.24
52653;BME280;39353;42.864;12.014;2022-10-30T12:37:34;98127.33;;;22.39;50.71
52653;BME280;39353;42.864;12.014;2022-10-30T12:42:54;98122.95;;;22.44;51.55
52653;BME280;39353;42.864;12.014;2022-10-30T12:45:41;98125.47;;;22.40;50.52
52653;BME280;39353;42.864;12.014;2022-10-30T12:48:23;98121.02;;;22.36;50.09
52653;BME280;39353;42.864;12.014;2022-10-30T12:51:11;98116.77;;;22.34;49.94
52653;BME280;39353;42.864;12.014;2022-10-30T12:54:32;98111.79;;;22.37;50.21
52653;BME280;39353;42.864;12.014;2022-10-30T12:57:19;98109.20;;;22.35;48.25
52653;BME280;39353;42.864;12.014;2022-10-30T13:03:22;98109.67;;;22.33;48.95
52653;BME280;39353;42.864;12.014;2022-10-30T13:05:58;98105.64;;;22.31;49.38
52653;BME280;39353;42.864;12.014;2022-10-30T13:09:01;98104.25;;;22.31;49.67
52653;BME280;39353;42.864;12.014;2022-10-30T13:14:59;98100.77;;;22.31;49.10
52653;BME280;39353;42.864;12.014;2022-10-30T13:17:28;98099.16;;;22.34;48.59
52653;BME280;39353;42.864;12.014;2022-10-30T13:19:56;98095.45;;;22.34;48.82
52653;BME280;39353;42.864;12.014;2022-10-30T13:22:40;98095.80;;;22.37;48.79
52653;BME280;39353;42.864;12.014;2022-10-30T13:28:19;98089.44;;;22.49;48.52
52653;BME280;39353;42.864;12.014;2022-10-30T13:31:22;98089.73;;;22.49;47.45
52653;BME280;39353;42.864;12.014;2022-10-30T13:51:36;98082.36;;;22.53;49.45
52653;BME280;39353;42.864;12.014;2022-10-30T13:54:37;98084.23;;;22.53;49.71
52653;BME280;39353;42.864;12.014;2022-10-30T13:57:36;98082.92;;;22.53;50.19
52653;BME280;39353;42.864;12.014;2022-10-30T14:03:32;98082.54;;;22.55;50.45
52653;BME280;39353;42.864;12.014;2022-10-30T14:15:25;98080.06;;;22.59;51.03
52653;BME280;39353;42.864;12.014;2022-10-30T14:28:42;98082.16;;;22.60;51.38
52653;BME280;39353;42.864;12.014;2022-10-30T14:31:17;98077.45;;;22.60;51.41
52653;BME280;39353;42.864;12.014;2022-10-30T14:33:59;98077.80;;;22.58;51.62
52653;BME280;39353;42.864;12.014;2022-10-30T14:42:14;98075.86;;;22.57;51.72
52653;BME280;39353;42.864;12.014;2022-10-30T14:45:16;98075.38;;;22.56;52.13
52653;BME280;39353;42.864;12.014;2022-10-30T14:48:36;98072.01;;;22.56;51.92
52653;BME280;39353;42.864;12.014;2022-10-30T14:51:22;98068.64;;;22.55;51.99
52653;BME280;39353;42.864;12.014;2022-10-30T14:56:56;98069.20;;;22.55;52.19
52653;BME280;39353;42.864;12.014;2022-10-30T14:59:32;98067.42;;;22.56;52.20
52653;BME280;39353;42.864;12.014;2022-10-30T15:02:44;98067.42;;;22.56;52.30
52653;BME280;39353;42.864;12.014;2022-10-30T15:05:35;98068.43;;;22.55;52.21
52653;BME280;39353;42.864;12.014;2022-10-30T15:11:29;98067.34;;;22.55;52.39
52653;BME280;39353;42.864;12.014;2022-10-30T15:14:25;98064.95;;;22.54;52.42
52653;BME280;39353;42.864;12.014;2022-10-30T15:17:38;98066.80;;;22.54;52.47
52653;BME280;39353;42.864;12.014;2022-10-30T15:20:27;98065.38;;;22.54;52.51
52653;BME280;39353;42.864;12.014;2022-10-30T15:23:27;98062.94;;;22.53;52.63
52653;BME280;39353;42.864;12.014;2022-10-30T15:26:05;98059.20;;;22.52;52.58
52653;BME280;39353;42.864;12.014;2022-10-30T15:28:35;98062.22;;;22.53;52.58
52653;BME280;39353;42.864;12.014;2022-10-30T15:31:22;98061.34;;;22.53;52.88
52653;BME280;39353;42.864;12.014;2022-10-30T15:33:51;98062.36;;;22.52;52.79
52653;BME280;39353;42.864;12.014;2022-10-30T15:36:41;98059.80;;;22.52;52.67
52653;BME280;39353;42.864;12.014;2022-10-30T15:39:11;98062.90;;;22.52;52.77
52653;BME280;39353;42.864;12.014;2022-10-30T15:41:52;98062.45;;;22.53;53.03
52653;BME280;39353;42.864;12.014;2022-10-30T15:44:43;98062.17;;;22.53;52.78
52653;BME280;39353;42.864;12.014;2022-10-30T15:47:17;98062.00;;;22.54;52.88
52653;BME280;39353;42.864;12.014;2022-10-30T15:50:01;98060.02;;;22.55;52.79
52653;BME280;39353;42.864;12.014;2022-10-30T15:52:42;98062.11;;;22.57;52.98
52653;BME280;39353;42.864;12.014;2022-10-30T15:55:15;98060.64;;;22.57;52.83
52653;BME280;39353;42.864;12.014;2022-10-30T15:57:54;98058.77;;;22.57;52.71
52653;BME280;39353;42.864;12.014;2022-10-30T16:00:31;98059.84;;;22.56;52.41
52653;BME280;39353;42.864;12.014;2022-10-30T16:03:16;98059.21;;;22.56;52.65
52653;BME280;39353;42.864;12.014;2022-10-30T16:05:44;98059.30;;;22.55;52.72
52653;BME280;39353;42.864;12.014;2022-10-30T16:08:26;98061.33;;;22.55;52.78
52653;BME280;39353;42.864;12.014;2022-10-30T16:10:55;98060.89;;;22.55;52.89
52653;BME280;39353;42.864;12.014;2022-10-30T16:13:37;98065.07;;;22.54;52.82
52653;BME280;39353;42.864;12.014;2022-10-30T16:16:23;98061.59;;;22.55;52.87
52653;BME280;39353;42.864;12.014;2022-10-30T16:19:06;98064.28;;;22.54;52.89
52653;BME280;39353;42.864;12.014;2022-10-30T16:21:35;98066.89;;;22.53;52.88
52653;BME280;39353;42.864;12.014;2022-10-30T16:24:03;98066.98;;;22.53;53.00